Flight Track Log - Related Links

Times and Time Zones

All times are in EDT time to prevent confusion due to time zone crossing. See the N244A flight status page for this flight to view local times or setup timezone preferences in your user account.

Time Position Orientation Groundspeed Altitude Reporting Facility
EDT Latitude Longitude Course Direction KTS MPH feet Rate Location/Type
Thu 12:41:06 PM 26.1978 -80.1586 33° Northeast 141 162 700  Level Miami Center
Thu 12:41:40 PM 26.2253 -80.1386 33° Northeast 164 189 1,600 1,612 Climbing Miami Center
Thu 12:42:13 PM 26.2397 -80.1528 319° Northwest 212 244 2,500 1,900 Climbing Miami Center
Thu 12:42:40 PM 26.2725 -80.1744 329° Northwest 248 285 3,500 2,966 Climbing Miami Center
Thu 12:43:40 PM 26.3258 -80.2200 323° Northwest 293 337 6,800 3,050 Climbing Miami Center
Thu 12:44:40 PM 26.3853 -80.2681 324° Northwest 293 337 9,600 2,850 Climbing Miami Center
Thu 12:45:40 PM 26.4611 -80.3283 325° Northwest 301 346 12,500 2,600 Climbing Miami Center
Thu 12:46:40 PM 26.5331 -80.3814 327° Northwest 330 380 14,800 2,350 Climbing Miami Center
Thu 12:47:40 PM 26.6231 -80.4517 325° Northwest 346 398 17,200 2,150 Climbing Miami Center
Thu 12:48:40 PM 26.7008 -80.5167 323° Northwest 371 427 19,100 1,950 Climbing Miami Center
Thu 12:49:40 PM 26.7892 -80.5800 327° Northwest 381 438 21,100 1,750 Climbing Miami Center
Thu 12:50:40 PM 26.8878 -80.6389 332° Northwest 381 438 22,600 1,700 Climbing Miami Center
Thu 12:51:40 PM 26.9842 -80.7003 330° Northwest 391 450 24,500 1,550 Climbing Miami Center
Thu 12:52:40 PM 27.0853 -80.7503 336° Northwest 396 456 25,700 1,150 Climbing Miami Center
Thu 12:53:40 PM 27.1922 -80.8078 334° Northwest 403 464 26,800 1,150 Climbing Miami Center
Thu 12:54:40 PM 27.2994 -80.8628 335° Northwest 414 476 28,000 1,100 Climbing Miami Center
Thu 12:55:40 PM 27.4167 -80.9231 335° Northwest 419 482 29,000 900 Climbing Miami Center
Thu 12:56:40 PM 27.5297 -80.9831 335° Northwest 430 495 29,800 850 Climbing Miami Center
Thu 12:57:40 PM 27.6431 -81.0364 337° Northwest 441 507 30,700 800 Climbing Miami Center
Thu 12:58:40 PM 27.7436 -81.0917 334° Northwest 441 507 31,400 1,250 Climbing Miami Center
Thu 12:59:40 PM 27.8711 -81.1575 335° Northwest 441 507 33,200 1,250 Climbing Miami Center
Thu 01:00:40 PM 27.9719 -81.2014 339° North 436 502 33,900 1,000 Climbing Miami Center
Thu 01:01:40 PM 28.0903 -81.2294 348° North 431 496 35,200 1,050 Climbing Miami Center
Thu 01:02:40 PM 28.2206 -81.2603 348° North 431 496 36,000 632 Climbing Miami Center
Thu 01:04:31 PM 28.4242 -81.3158 347° North 421 484 37,000 351 Climbing Jacksonville Center
Thu 01:05:31 PM 28.5475 -81.3517 346° North 426 490 37,000  Level Jacksonville Center
Thu 01:06:31 PM 28.6608 -81.3950 341° North 437 503 37,000  Level Jacksonville Center
Thu 01:07:31 PM 28.7825 -81.4475 339° North 448 516 37,000  Level Jacksonville Center
Thu 01:08:31 PM 28.9019 -81.4956 341° North 448 516 37,000  Level Jacksonville Center
Thu 01:09:31 PM 29.0236 -81.5414 342° North 448 516 37,000  Level Jacksonville Center
Thu 01:10:31 PM 29.1450 -81.5872 342° North 448 516 37,000  Level Jacksonville Center
Thu 01:11:31 PM 29.2728 -81.6403 340° North 448 516 37,000  Level Jacksonville Center
Thu 01:12:31 PM 29.3964 -81.6817 344° North 448 516 37,000  Level Jacksonville Center
Thu 01:13:31 PM 29.5158 -81.7183 345° North 448 516 37,000  Level Jacksonville Center
Thu 01:14:31 PM 29.6353 -81.7647 341° North 448 516 37,000  Level Jacksonville Center
Thu 01:15:31 PM 29.7506 -81.8136 340° North 443 510 37,000  Level Jacksonville Center
Thu 01:16:31 PM 29.8678 -81.8556 343° North 444 511 37,000  Level Jacksonville Center
Thu 01:17:31 PM 29.9911 -81.8758 352° North 436 502 37,000  Level Jacksonville Center
Thu 01:18:31 PM 30.1058 -81.8744 North 441 507 37,000 -50 Level Jacksonville Center
Thu 01:19:31 PM 30.2269 -81.8589 North 441 507 36,900  Descending Jacksonville Center
Thu 01:20:31 PM 30.3475 -81.8142 18° North 435 501 37,000 50 Climbing Jacksonville Center
Thu 01:21:31 PM 30.4808 -81.7717 15° North 440 506 37,000  Level Jacksonville Center
Thu 01:22:31 PM 30.5869 -81.7392 15° North 451 519 37,000  Level Jacksonville Center
Thu 01:23:31 PM 30.7078 -81.6989 16° North 451 519 37,000  Level Jacksonville Center
Thu 01:24:31 PM 30.8264 -81.6589 16° North 446 513 37,000  Level Jacksonville Center
Thu 01:25:31 PM 30.9450 -81.6183 16° North 446 513 37,000  Level Jacksonville Center
Thu 01:26:31 PM 31.0636 -81.5781 16° North 446 513 37,000  Level Jacksonville Center
Thu 01:27:31 PM 31.1842 -81.5350 17° North 440 506 37,000  Level Jacksonville Center
Thu 01:28:31 PM 31.3050 -81.4969 15° North 440 506 37,000  Level Jacksonville Center
Thu 01:29:31 PM 31.4214 -81.4489 19° North 429 494 37,000  Level Jacksonville Center
Thu 01:30:31 PM 31.5417 -81.3789 26° Northeast 433 498 37,000  Level Jacksonville Center
Thu 01:31:31 PM 31.6556 -81.3111 27° Northeast 451 519 37,000  Level Jacksonville Center
Thu 01:32:31 PM 31.7572 -81.2531 26° Northeast 444 511 37,000  Level Jacksonville Center
Thu 01:33:31 PM 31.8692 -81.1900 26° Northeast 451 519 37,000  Level Jacksonville Center
Thu 01:34:31 PM 31.9850 -81.1242 26° Northeast 451 519 37,000  Level Jacksonville Center
Thu 01:35:31 PM 32.1114 -81.0531 25° Northeast 451 519 37,000  Level Jacksonville Center
Thu 01:36:31 PM 32.2150 -80.9919 27° Northeast 451 519 37,000  Level Jacksonville Center
Thu 01:37:31 PM 32.3308 -80.9281 25° Northeast 456 525 37,000  Level Jacksonville Center
Thu 01:38:31 PM 32.4447 -80.8617 26° Northeast 456 525 37,000  Level Jacksonville Center
Thu 01:39:31 PM 32.5583 -80.7950 26° Northeast 456 525 37,000  Level Jacksonville Center
Thu 01:40:31 PM 32.6742 -80.7258 27° Northeast 456 525 37,000  Level Jacksonville Center
Thu 01:41:31 PM 32.7897 -80.6611 25° Northeast 461 531 37,000  Level Jacksonville Center
Thu 01:42:31 PM 32.9075 -80.5939 26° Northeast 461 531 37,000  Level Jacksonville Center
Thu 01:43:31 PM 33.0253 -80.5264 26° Northeast 466 536 37,000  Level Jacksonville Center
Thu 01:44:31 PM 33.1431 -80.4589 26° Northeast 466 536 37,000  Level Jacksonville Center
Thu 01:45:31 PM 33.2628 -80.3886 26° Northeast 467 537 37,000  Level Jacksonville Center
Thu 01:46:31 PM 33.3803 -80.3181 27° Northeast 467 537 37,000  Level Jacksonville Center
Thu 01:47:31 PM 33.4936 -80.2475 27° Northeast 462 532 37,000 -50 Level Jacksonville Center
Thu 01:48:31 PM 33.6089 -80.1792 26° Northeast 462 532 36,900  Descending Jacksonville Center
Thu 01:49:31 PM 33.7244 -80.1083 27° Northeast 462 532 37,000 50 Climbing Jacksonville Center
Thu 01:50:31 PM 33.8394 -80.0372 27° Northeast 462 532 37,000  Level Jacksonville Center
Thu 01:51:31 PM 33.9569 -79.9683 26° Northeast 462 532 37,000  Level Jacksonville Center
Thu 01:52:31 PM 34.0742 -79.8992 26° Northeast 462 532 37,000 -50 Level Jacksonville Center
Thu 01:53:31 PM 34.1872 -79.8300 27° Northeast 462 532 36,900  Descending Jacksonville Center
Thu 01:55:24 PM 34.4103 -79.6925 27° Northeast 466 536 37,000 34 Climbing Washington Center
Thu 01:56:25 PM 34.5253 -79.6228 27° Northeast 466 536 37,000  Level Washington Center
Thu 01:57:25 PM 34.6425 -79.5528 26° Northeast 461 531 37,000  Level Washington Center
Thu 01:58:22 PM 34.7575 -79.4800 27° Northeast 461 531 37,000  Level Washington Center
Thu 01:59:24 PM 34.8744 -79.4097 26° Northeast 461 531 37,000  Level Washington Center
Thu 02:00:25 PM 34.9894 -79.3364 28° Northeast 461 531 37,000  Level Washington Center
Thu 02:01:23 PM 35.0808 -79.2822 26° Northeast 461 531 37,000  Level Washington Center
Thu 02:02:24 PM 35.2192 -79.1947 27° Northeast 461 531 37,000  Level Washington Center
Thu 02:03:24 PM 35.3275 -79.1281 27° Northeast 461 531 37,000  Level Washington Center
Thu 02:04:24 PM 35.4531 -79.0522 26° Northeast 463 533 37,000  Level Washington Center
Thu 02:05:25 PM 35.5550 -78.9875 27° Northeast 458 527 37,000  Level Washington Center
Thu 02:06:25 PM 35.6697 -78.9183 26° Northeast 458 527 37,000  Level Washington Center
Thu 02:07:23 PM 35.7886 -78.8414 28° Northeast 458 527 37,000  Level Washington Center
Thu 02:08:24 PM 35.9031 -78.7692 27° Northeast 458 527 37,000  Level Washington Center
Thu 02:09:24 PM 36.0219 -78.6994 25° Northeast 458 527 37,000  Level Washington Center
Thu 02:10:25 PM 36.1425 -78.6347 23° Northeast 458 527 37,000  Level Washington Center
Thu 02:11:25 PM 36.2569 -78.5669 26° Northeast 458 527 37,000  Level Washington Center
Thu 02:12:23 PM 36.3775 -78.4994 24° Northeast 458 527 37,000  Level Washington Center
Thu 02:13:24 PM 36.4936 -78.4339 24° Northeast 458 527 37,000  Level Washington Center
Thu 02:14:23 PM 36.6122 -78.3658 25° Northeast 458 527 37,000  Level Washington Center
Thu 02:15:24 PM 36.7222 -78.2997 26° Northeast 452 520 37,000  Level Washington Center
Thu 02:16:25 PM 36.8364 -78.2339 25° Northeast 444 511 37,000  Level Washington Center
Thu 02:17:23 PM 36.9547 -78.1597 27° Northeast 451 519 37,000  Level Washington Center
Thu 02:18:24 PM 37.0686 -78.1011 22° Northeast 451 519 37,000  Level Washington Center
Thu 02:19:25 PM 37.1850 -78.0294 26° Northeast 451 519 37,000  Level Washington Center
Thu 02:20:26 PM 37.3031 -77.9600 25° Northeast 446 513 37,000  Level Washington Center
Thu 02:21:24 PM 37.4192 -77.8931 25° Northeast 446 513 37,000  Level Washington Center
Thu 02:22:24 PM 37.5353 -77.8231 26° Northeast 446 513 37,000  Level Washington Center
Thu 02:23:25 PM 37.6411 -77.7292 35° Northeast 451 519 37,000  Level Washington Center
Thu 02:24:25 PM 37.7472 -77.6325 36° Northeast 457 526 37,000  Level Washington Center
Thu 02:25:23 PM 37.8531 -77.5353 36° Northeast 462 532 37,000 -655 Level Washington Center
Thu 02:26:24 PM 37.9589 -77.4353 37° Northeast 462 532 35,700 -1,388 Descending Washington Center
Thu 02:27:24 PM 38.0731 -77.3325 35° Northeast 464 534 34,200 -1,388 Descending Washington Center
Thu 02:28:25 PM 38.1786 -77.2347 36° Northeast 458 527 32,900 -1,261 Descending Washington Center
Thu 02:29:23 PM 38.2758 -77.1442 36° Northeast 465 535 31,700 -1,412 Descending Washington Center
Thu 02:30:24 PM 38.3875 -77.0381 37° Northeast 465 535 30,100 -1,820 Descending Washington Center
Thu 02:31:25 PM 38.4850 -76.9178 44° Northeast 460 529 28,000 -2,471 Descending Washington Center
Thu 02:32:23 PM 38.5761 -76.7814 49° Northeast 477 549 25,200 -2,034 Descending Washington Center
Thu 02:33:23 PM 38.6711 -76.6394 49° Northeast 500 575 24,000 -595 Descending Washington Center
Thu 02:34:24 PM 38.7639 -76.5128 47° Northeast 505 581 24,000  Level Washington Center
Thu 02:35:24 PM 38.8522 -76.3914 47° Northeast 486 559 24,000  Level Washington Center
Thu 02:36:25 PM 38.9428 -76.2589 49° Northeast 481 554 24,000  Level Washington Center
Thu 02:37:25 PM 39.0269 -76.1206 52° Northeast 487 560 24,000  Level Washington Center
Thu 02:38:23 PM 39.1253 -75.9928 45° Northeast 492 566 24,000  Level Washington Center
Thu 02:39:23 PM 39.2339 -75.8783 39° Northeast 492 566 24,000 -198 Level Washington Center
Thu 02:40:24 PM 39.3361 -75.8222 23° Northeast 492 566 23,600 -2,049 Descending Washington Center
Thu 02:42:07 PM 39.5667 -75.7167 19° North 425 489 18,400 -2,982 Descending Philadelphia TRACON
Thu 02:43:07 PM 39.6667 -75.6667 21° North 406 467 15,500 -2,700 Descending Philadelphia TRACON
Thu 02:44:07 PM 39.7667 -75.6167 21° North 411 473 13,000 -1,316 Descending Philadelphia TRACON
Thu 02:45:01 PM 39.8667 -75.5500 27° Northeast 416 479 13,000  Level Philadelphia TRACON
Thu 02:46:01 PM 39.9667 -75.4500 37° Northeast 424 488 13,000  Level Philadelphia TRACON
Thu 02:47:01 PM 40.0500 -75.3500 43° Northeast 425 489 13,000  Level Philadelphia TRACON
Thu 02:48:02 PM 40.1500 -75.2833 27° Northeast 338 389 13,000 -694 Level Philadelphia TRACON
Thu 02:49:02 PM 40.2167 -75.2167 37° Northeast 322 371 11,600 -1,484 Descending Philadelphia TRACON
Thu 02:51:04 PM 40.3667 -75.0500 40° Northeast 329 379 8,500 -1,516 Descending New York TRACON
Thu 02:52:04 PM 40.4167 -74.9667 52° Northeast 313 360 7,000 -1,381 Descending New York TRACON
Thu 02:53:10 PM 40.4833 -74.8833 44° Northeast 295 339 5,600 -1,400 Descending New York TRACON
Thu 02:54:04 PM 40.5333 -74.8167 45° Northeast 304 350 4,200 -842 Descending New York TRACON
Thu 02:55:04 PM 40.6000 -74.7333 43° Northeast 298 343 4,000 -95 Descending New York TRACON
Thu 02:56:10 PM 40.6667 -74.6833 30° Northeast 283 326 4,000  Level New York TRACON
Thu 02:57:10 PM 40.7500 -74.6333 24° Northeast 295 339 4,000  Level New York TRACON
Thu 02:58:04 PM 40.8000 -74.6000 27° Northeast 299 344 4,000 -526 Level New York TRACON
Thu 02:59:04 PM 40.8833 -74.5500 24° Northeast 299 344 3,000 -476 Descending New York TRACON
Thu 03:00:10 PM 40.9667 -74.5000 24° Northeast 300 345 3,000 48 Level New York TRACON
Thu 03:01:10 PM 41.0500 -74.4500 24° Northeast 300 345 3,100  Climbing New York TRACON
Thu 03:02:04 PM 41.0667 -74.3500 78° East 302 348 3,000 -50 Descending New York TRACON
Thu 03:03:10 PM 41.0500 -74.2333 101° East 289 333 3,000  Level New York TRACON
Thu 03:04:10 PM 41.0333 -74.1333 102° East 279 321 3,000 -150 Level New York TRACON
Thu 03:05:10 PM 41.0167 -74.0667 108° East 209 241 2,700 -526 Descending New York TRACON
Thu 03:06:04 PM 40.9833 -74.0500 159° South 162 186 2,000 -579 Descending New York TRACON
Thu 03:07:04 PM 40.9333 -74.0500 180° South 155 178 1,600 -550 Descending New York TRACON
Thu 03:08:04 PM 40.9000 -74.0500 180° South 133 153 900 -650 Descending New York TRACON
Thu 03:09:04 PM 40.8667 -74.0667 201° Southwest 117 135 300 -600 Descending New York TRACON

Login

Don't have an account? Register now (free) for customized features, flight alerts, and more!